createdAt,value
2023-09-26T00:01:05.573Z,7.47
2023-09-26T00:09:11.375Z,7.72
2023-09-26T00:17:19.436Z,7.50
2023-09-26T00:25:25.254Z,7.30
2023-09-26T00:33:33.675Z,7.97
2023-09-26T00:41:40.010Z,7.72
2023-09-26T00:49:48.299Z,7.75
2023-09-26T00:57:54.389Z,8.02
2023-09-26T01:06:04.465Z,8.45
2023-09-26T01:14:10.131Z,7.47
2023-09-26T01:22:21.112Z,7.82
2023-09-26T01:30:29.377Z,7.70
2023-09-26T01:38:35.685Z,7.53
2023-09-26T01:46:43.901Z,9.00
2023-09-26T01:54:49.399Z,9.05
2023-09-26T02:02:57.581Z,8.43
2023-09-26T02:11:03.035Z,9.70
2023-09-26T02:19:12.098Z,9.00
2023-09-26T02:27:17.631Z,9.55
2023-09-26T02:35:25.698Z,8.88
2023-09-26T02:43:31.177Z,9.63
2023-09-26T02:51:39.246Z,9.80
2023-09-26T02:59:44.722Z,10.57
2023-09-26T03:07:54.270Z,10.48
2023-09-26T03:15:59.911Z,8.65
2023-09-26T03:24:11.743Z,8.13
2023-09-26T03:32:17.176Z,8.27
2023-09-26T03:40:25.313Z,8.00
2023-09-26T03:48:30.887Z,7.30
2023-09-26T03:56:38.900Z,8.05
2023-09-26T04:04:44.379Z,7.53
2023-09-26T04:12:52.591Z,8.10
2023-09-26T04:20:58.118Z,7.85
2023-09-26T04:29:06.480Z,9.18
2023-09-26T04:37:11.953Z,9.23
2023-09-26T04:45:20.275Z,9.50
2023-09-26T04:53:25.799Z,9.63
2023-09-26T05:01:33.891Z,10.27
2023-09-26T05:09:39.390Z,9.77
2023-09-26T05:17:51.672Z,9.93
2023-09-26T05:25:57.172Z,10.83
2023-09-26T05:34:05.260Z,9.32
2023-09-26T05:42:11.569Z,8.35
2023-09-26T05:50:19.621Z,8.77
2023-09-26T05:58:25.100Z,8.30
2023-09-26T06:06:33.233Z,8.55
2023-09-26T06:14:38.839Z,7.93
2023-09-26T06:22:46.938Z,6.97
2023-09-26T06:30:52.515Z,7.40
2023-09-26T06:39:04.308Z,7.30
2023-09-26T06:47:09.862Z,6.32
2023-09-26T06:55:18.095Z,6.47
2023-09-26T07:03:23.573Z,6.82
2023-09-26T07:11:31.596Z,5.85
2023-09-26T07:19:37.166Z,7.40
2023-09-26T07:27:47.383Z,5.57
2023-09-26T07:35:55.534Z,6.28
2023-09-26T08:18:25.482Z,7.43
2023-09-26T08:26:30.964Z,6.10
2023-09-26T08:34:38.967Z,5.90
2023-09-26T08:42:47.121Z,5.80
2023-09-26T08:50:55.559Z,5.80
2023-09-26T08:59:01.807Z,6.20
2023-09-26T09:07:09.969Z,5.50
2023-09-26T09:15:28.345Z,5.68
2023-09-26T09:23:49.925Z,5.50
2023-09-26T09:31:56.069Z,5.70
2023-09-26T09:40:06.128Z,5.53
2023-09-26T09:48:13.989Z,5.97
2023-09-26T09:56:25.841Z,5.40
2023-09-26T10:04:33.198Z,5.65
2023-09-26T10:12:51.121Z,4.73
2023-09-26T10:21:07.697Z,5.22
2023-09-26T10:29:21.975Z,4.95
2023-09-26T10:37:31.615Z,5.28
2023-09-26T10:45:39.816Z,4.80
2023-09-26T10:53:45.590Z,4.53
2023-09-26T11:01:57.779Z,4.30
2023-09-26T11:10:05.071Z,5.00
2023-09-26T11:18:17.021Z,3.90
2023-09-26T11:26:22.525Z,4.57
2023-09-26T11:34:31.096Z,4.40
2023-09-26T11:42:45.152Z,9.02
2023-09-26T11:50:54.142Z,5.32
2023-09-26T11:59:01.222Z,5.10
2023-09-26T12:07:09.719Z,5.47
2023-09-26T12:15:26.033Z,5.43
2023-09-26T12:23:34.133Z,4.88
2023-09-26T12:31:39.607Z,5.65
2023-09-26T12:39:47.731Z,8.15
2023-09-26T12:47:53.420Z,5.55
2023-09-26T12:56:01.654Z,5.43
2023-09-26T13:04:07.930Z,5.18
2023-09-26T13:12:16.217Z,5.63
2023-09-26T13:20:21.814Z,5.68
2023-09-26T13:28:29.978Z,5.80
2023-09-26T13:36:35.746Z,5.60
2023-09-26T13:44:43.949Z,5.43
2023-09-26T13:52:49.436Z,5.68
2023-09-26T14:00:57.980Z,5.50
2023-09-26T14:09:04.098Z,5.55
2023-09-26T14:17:12.297Z,7.00
2023-09-26T14:25:18.264Z,5.50
2023-09-26T14:33:27.518Z,5.78
2023-09-26T14:41:33.114Z,5.63
2023-09-26T14:49:41.460Z,6.20
2023-09-26T14:57:46.917Z,6.25
2023-09-26T15:05:55.133Z,5.50
2023-09-26T15:14:00.631Z,5.50
2023-09-26T15:22:08.715Z,6.10
2023-09-26T15:30:15.840Z,6.10
2023-09-26T15:38:24.132Z,6.03
2023-09-26T15:46:29.667Z,5.78
2023-09-26T15:54:37.832Z,6.85
2023-09-26T16:02:43.441Z,5.88
2023-09-26T16:10:51.723Z,6.07
2023-09-26T16:18:58.673Z,7.30
2023-09-26T16:27:07.028Z,5.78
2023-09-26T16:35:13.192Z,6.20
2023-09-26T16:43:22.819Z,6.03
2023-09-26T16:51:28.448Z,5.65
2023-09-26T16:59:36.604Z,5.60
2023-09-26T17:07:42.057Z,6.78
2023-09-26T17:15:50.312Z,8.13
2023-09-26T17:23:55.827Z,7.88
2023-09-26T17:32:04.586Z,5.68
2023-09-26T17:40:13.036Z,7.82
2023-09-26T17:48:21.097Z,9.60
2023-09-26T17:56:26.498Z,10.70
2023-09-26T18:04:34.579Z,9.48
2023-09-26T18:12:40.768Z,10.10
2023-09-26T18:20:49.900Z,10.90
2023-09-26T18:28:55.397Z,9.27
2023-09-26T18:37:03.557Z,10.23
2023-09-26T18:45:10.437Z,10.13
2023-09-26T18:53:18.620Z,9.50
2023-09-26T20:38:17.321Z,8.30
2023-09-26T20:46:22.930Z,9.80
2023-09-26T20:54:32.748Z,9.90
2023-09-26T21:02:38.399Z,10.55
2023-09-26T21:10:46.605Z,10.90
2023-09-26T21:18:53.240Z,10.27
2023-09-26T21:27:01.573Z,10.60
2023-09-26T21:35:18.837Z,10.27
2023-09-26T21:43:26.978Z,10.18
2023-09-26T21:51:32.704Z,9.88
2023-09-26T21:59:40.742Z,9.40
2023-09-26T22:07:48.279Z,9.50
2023-09-26T22:15:57.024Z,9.05
2023-09-26T22:24:02.700Z,9.98
2023-09-26T22:32:11.092Z,9.77
2023-09-26T22:40:16.706Z,9.93
2023-09-26T22:48:24.822Z,9.55
2023-09-26T22:56:30.752Z,10.15
2023-09-26T23:04:39.138Z,9.55
2023-09-26T23:12:44.579Z,11.50
2023-09-26T23:20:52.718Z,11.73
2023-09-26T23:28:59.320Z,10.48
2023-09-26T23:37:07.559Z,12.13
2023-09-26T23:45:14.676Z,10.00
2023-09-26T23:53:22.931Z,10.80
